sensor_id;sensor_type;location;lat;lon;timestamp;temperature;humidity
25320;DHT22;13256;49.012;8.610;2023-07-20T00:00:26;20.40;86.10
25320;DHT22;13256;49.012;8.610;2023-07-20T00:03:10;20.40;86.20
25320;DHT22;13256;49.012;8.610;2023-07-20T00:05:43;20.30;86.70
25320;DHT22;13256;49.012;8.610;2023-07-20T00:08:12;20.30;87.00
25320;DHT22;13256;49.012;8.610;2023-07-20T00:10:40;20.30;87.50
25320;DHT22;13256;49.012;8.610;2023-07-20T00:13:09;20.20;88.00
25320;DHT22;13256;49.012;8.610;2023-07-20T00:15:36;20.20;88.20
25320;DHT22;13256;49.012;8.610;2023-07-20T00:18:04;20.10;88.50
25320;DHT22;13256;49.012;8.610;2023-07-20T00:20:31;20.10;87.80
25320;DHT22;13256;49.012;8.610;2023-07-20T00:22:58;20.10;88.00
25320;DHT22;13256;49.012;8.610;2023-07-20T00:25:25;20.00;88.40
25320;DHT22;13256;49.012;8.610;2023-07-20T00:27:52;20.00;88.40
25320;DHT22;13256;49.012;8.610;2023-07-20T00:30:21;19.90;88.70
25320;DHT22;13256;49.012;8.610;2023-07-20T00:32:48;19.90;88.70
25320;DHT22;13256;49.012;8.610;2023-07-20T00:35:16;19.90;88.90
25320;DHT22;13256;49.012;8.610;2023-07-20T00:37:46;19.80;89.10
25320;DHT22;13256;49.012;8.610;2023-07-20T00:40:15;19.70;89.50
25320;DHT22;13256;49.012;8.610;2023-07-20T00:42:44;19.60;89.70
25320;DHT22;13256;49.012;8.610;2023-07-20T00:45:14;19.60;90.10
25320;DHT22;13256;49.012;8.610;2023-07-20T00:47:42;19.50;90.20
25320;DHT22;13256;49.012;8.610;2023-07-20T00:50:10;19.50;90.40
25320;DHT22;13256;49.012;8.610;2023-07-20T00:52:38;19.40;90.60
25320;DHT22;13256;49.012;8.610;2023-07-20T00:55:07;19.30;90.70
25320;DHT22;13256;49.012;8.610;2023-07-20T00:57:37;19.30;90.90
25320;DHT22;13256;49.012;8.610;2023-07-20T01:00:07;19.30;90.90
25320;DHT22;13256;49.012;8.610;2023-07-20T01:02:35;19.30;91.00
25320;DHT22;13256;49.012;8.610;2023-07-20T01:05:04;19.20;91.30
25320;DHT22;13256;49.012;8.610;2023-07-20T01:10:36;19.20;91.20
25320;DHT22;13256;49.012;8.610;2023-07-20T01:13:01;19.10;91.40
25320;DHT22;13256;49.012;8.610;2023-07-20T01:15:33;19.00;91.50
25320;DHT22;13256;49.012;8.610;2023-07-20T01:18:02;19.00;91.60
25320;DHT22;13256;49.012;8.610;2023-07-20T01:20:33;19.00;91.70
25320;DHT22;13256;49.012;8.610;2023-07-20T01:31:36;19.10;92.10
25320;DHT22;13256;49.012;8.610;2023-07-20T01:34:03;19.10;92.30
25320;DHT22;13256;49.012;8.610;2023-07-20T01:36:35;19.10;92.40
25320;DHT22;13256;49.012;8.610;2023-07-20T01:39:29;19.10;92.70
25320;DHT22;13256;49.012;8.610;2023-07-20T01:41:57;19.00;92.70
25320;DHT22;13256;49.012;8.610;2023-07-20T01:44:24;19.00;92.80
25320;DHT22;13256;49.012;8.610;2023-07-20T01:47:03;19.00;92.90
25320;DHT22;13256;49.012;8.610;2023-07-20T01:49:30;19.00;93.00
25320;DHT22;13256;49.012;8.610;2023-07-20T01:52:01;19.00;93.20
25320;DHT22;13256;49.012;8.610;2023-07-20T01:54:30;18.90;93.30
25320;DHT22;13256;49.012;8.610;2023-07-20T01:56:57;18.80;93.20
25320;DHT22;13256;49.012;8.610;2023-07-20T01:59:24;18.70;93.20
25320;DHT22;13256;49.012;8.610;2023-07-20T02:01:56;18.60;93.50
25320;DHT22;13256;49.012;8.610;2023-07-20T02:04:24;18.60;93.50
25320;DHT22;13256;49.012;8.610;2023-07-20T02:06:54;18.50;94.00
25320;DHT22;13256;49.012;8.610;2023-07-20T02:09:20;18.50;93.90
25320;DHT22;13256;49.012;8.610;2023-07-20T02:11:50;18.40;94.20
25320;DHT22;13256;49.012;8.610;2023-07-20T02:14:20;18.40;94.20
25320;DHT22;13256;49.012;8.610;2023-07-20T02:16:48;18.40;94.30
25320;DHT22;13256;49.012;8.610;2023-07-20T02:19:21;18.40;94.40
25320;DHT22;13256;49.012;8.610;2023-07-20T02:21:47;18.50;94.50
25320;DHT22;13256;49.012;8.610;2023-07-20T02:24:16;18.50;94.70
25320;DHT22;13256;49.012;8.610;2023-07-20T02:26:44;18.40;95.00
25320;DHT22;13256;49.012;8.610;2023-07-20T02:29:14;18.40;95.10
25320;DHT22;13256;49.012;8.610;2023-07-20T02:31:41;18.40;95.10
25320;DHT22;13256;49.012;8.610;2023-07-20T02:34:11;18.40;95.30
25320;DHT22;13256;49.012;8.610;2023-07-20T02:36:42;18.40;95.50
25320;DHT22;13256;49.012;8.610;2023-07-20T02:39:09;18.40;95.60
25320;DHT22;13256;49.012;8.610;2023-07-20T02:41:39;18.30;95.60
25320;DHT22;13256;49.012;8.610;2023-07-20T02:44:06;18.20;95.70
25320;DHT22;13256;49.012;8.610;2023-07-20T02:46:59;18.20;95.80
25320;DHT22;13256;49.012;8.610;2023-07-20T02:49:28;18.20;95.80
25320;DHT22;13256;49.012;8.610;2023-07-20T02:51:58;18.20;96.00
25320;DHT22;13256;49.012;8.610;2023-07-20T02:54:25;18.20;96.50
25320;DHT22;13256;49.012;8.610;2023-07-20T02:56:53;18.10;96.90
25320;DHT22;13256;49.012;8.610;2023-07-20T02:59:20;18.10;97.20
25320;DHT22;13256;49.012;8.610;2023-07-20T03:01:50;18.10;97.40
25320;DHT22;13256;49.012;8.610;2023-07-20T03:04:21;18.00;97.80
25320;DHT22;13256;49.012;8.610;2023-07-20T03:06:48;18.00;98.00
25320;DHT22;13256;49.012;8.610;2023-07-20T03:09:15;17.80;98.30
25320;DHT22;13256;49.012;8.610;2023-07-20T03:11:42;17.70;98.60
25320;DHT22;13256;49.012;8.610;2023-07-20T03:14:11;17.50;98.90
25320;DHT22;13256;49.012;8.610;2023-07-20T03:16:42;17.40;99.50
25320;DHT22;13256;49.012;8.610;2023-07-20T03:19:12;17.30;99.90
25320;DHT22;13256;49.012;8.610;2023-07-20T03:21:41;17.20;99.90
25320;DHT22;13256;49.012;8.610;2023-07-20T03:24:09;17.10;99.90
25320;DHT22;13256;49.012;8.610;2023-07-20T03:26:39;17.10;99.90
25320;DHT22;13256;49.012;8.610;2023-07-20T03:29:08;17.00;99.90
25320;DHT22;13256;49.012;8.610;2023-07-20T03:31:38;17.00;99.90
25320;DHT22;13256;49.012;8.610;2023-07-20T03:34:05;16.90;99.90
25320;DHT22;13256;49.012;8.610;2023-07-20T03:36:37;16.80;99.90
25320;DHT22;13256;49.012;8.610;2023-07-20T03:39:04;16.80;99.90
25320;DHT22;13256;49.012;8.610;2023-07-20T03:41:33;16.80;99.90
25320;DHT22;13256;49.012;8.610;2023-07-20T03:44:00;16.70;99.90
25320;DHT22;13256;49.012;8.610;2023-07-20T03:46:31;16.60;99.90
25320;DHT22;13256;49.012;8.610;2023-07-20T03:48:58;16.50;99.90
25320;DHT22;13256;49.012;8.610;2023-07-20T03:51:52;16.30;99.90
25320;DHT22;13256;49.012;8.610;2023-07-20T03:54:19;16.30;99.90
25320;DHT22;13256;49.012;8.610;2023-07-20T03:56:48;16.30;99.90
25320;DHT22;13256;49.012;8.610;2023-07-20T03:59:20;16.30;99.90
25320;DHT22;13256;49.012;8.610;2023-07-20T04:01:52;16.30;99.90
25320;DHT22;13256;49.012;8.610;2023-07-20T04:04:22;16.30;99.90
25320;DHT22;13256;49.012;8.610;2023-07-20T04:24:41;16.20;99.90
25320;DHT22;13256;49.012;8.610;2023-07-20T04:27:09;16.20;99.90
25320;DHT22;13256;49.012;8.610;2023-07-20T04:29:36;16.20;99.90
25320;DHT22;13256;49.012;8.610;2023-07-20T04:32:06;16.30;99.90
25320;DHT22;13256;49.012;8.610;2023-07-20T04:34:40;16.30;99.90
25320;DHT22;13256;49.012;8.610;2023-07-20T04:37:12;16.30;99.90
25320;DHT22;13256;49.012;8.610;2023-07-20T04:39:50;16.30;99.90
25320;DHT22;13256;49.012;8.610;2023-07-20T04:42:24;16.30;99.90
25320;DHT22;13256;49.012;8.610;2023-07-20T04:44:53;16.40;99.90
25320;DHT22;13256;49.012;8.610;2023-07-20T04:47:21;16.40;99.90
25320;DHT22;13256;49.012;8.610;2023-07-20T04:49:51;16.50;99.90
25320;DHT22;13256;49.012;8.610;2023-07-20T04:52:22;16.50;99.90
25320;DHT22;13256;49.012;8.610;2023-07-20T04:55:04;16.60;99.90
25320;DHT22;13256;49.012;8.610;2023-07-20T04:57:31;16.70;99.90
25320;DHT22;13256;49.012;8.610;2023-07-20T05:00:02;16.80;99.90
25320;DHT22;13256;49.012;8.610;2023-07-20T05:02:36;16.90;99.90
25320;DHT22;13256;49.012;8.610;2023-07-20T05:05:06;17.00;99.90
25320;DHT22;13256;49.012;8.610;2023-07-20T05:07:43;17.10;99.90
25320;DHT22;13256;49.012;8.610;2023-07-20T05:10:17;17.20;99.90
25320;DHT22;13256;49.012;8.610;2023-07-20T05:12:44;17.30;99.90
25320;DHT22;13256;49.012;8.610;2023-07-20T05:15:14;17.30;99.90
25320;DHT22;13256;49.012;8.610;2023-07-20T05:17:49;17.30;99.90
25320;DHT22;13256;49.012;8.610;2023-07-20T05:20:20;17.40;99.90
25320;DHT22;13256;49.012;8.610;2023-07-20T05:22:48;17.50;99.90
25320;DHT22;13256;49.012;8.610;2023-07-20T05:25:20;17.50;99.90
25320;DHT22;13256;49.012;8.610;2023-07-20T05:27:53;17.50;99.90
25320;DHT22;13256;49.012;8.610;2023-07-20T05:30:25;17.60;99.90
25320;DHT22;13256;49.012;8.610;2023-07-20T05:32:54;17.60;99.90
25320;DHT22;13256;49.012;8.610;2023-07-20T05:35:25;17.70;99.90
25320;DHT22;13256;49.012;8.610;2023-07-20T05:37:53;17.70;99.90
25320;DHT22;13256;49.012;8.610;2023-07-20T05:40:20;17.70;99.90
25320;DHT22;13256;49.012;8.610;2023-07-20T05:42:49;17.70;99.90
25320;DHT22;13256;49.012;8.610;2023-07-20T05:45:18;17.70;99.90
25320;DHT22;13256;49.012;8.610;2023-07-20T05:47:51;17.70;99.90
25320;DHT22;13256;49.012;8.610;2023-07-20T05:50:21;17.70;99.90
25320;DHT22;13256;49.012;8.610;2023-07-20T05:52:54;17.70;99.90
25320;DHT22;13256;49.012;8.610;2023-07-20T05:55:21;17.70;99.90
25320;DHT22;13256;49.012;8.610;2023-07-20T05:57:48;17.80;99.90
25320;DHT22;13256;49.012;8.610;2023-07-20T06:00:16;17.80;99.90
25320;DHT22;13256;49.012;8.610;2023-07-20T06:02:49;17.90;99.90
25320;DHT22;13256;49.012;8.610;2023-07-20T06:05:22;18.00;99.90
25320;DHT22;13256;49.012;8.610;2023-07-20T06:07:52;18.00;99.90
25320;DHT22;13256;49.012;8.610;2023-07-20T06:10:21;18.00;99.90
25320;DHT22;13256;49.012;8.610;2023-07-20T06:12:50;18.10;99.90
25320;DHT22;13256;49.012;8.610;2023-07-20T06:15:26;18.20;99.90
25320;DHT22;13256;49.012;8.610;2023-07-20T06:17:59;18.30;99.90
25320;DHT22;13256;49.012;8.610;2023-07-20T06:20:35;18.40;99.90
25320;DHT22;13256;49.012;8.610;2023-07-20T06:23:05;18.50;99.90
25320;DHT22;13256;49.012;8.610;2023-07-20T06:25:32;18.60;99.90
25320;DHT22;13256;49.012;8.610;2023-07-20T06:28:02;18.70;99.90
25320;DHT22;13256;49.012;8.610;2023-07-20T06:30:35;18.90;99.90
25320;DHT22;13256;49.012;8.610;2023-07-20T06:33:21;19.10;99.90
25320;DHT22;13256;49.012;8.610;2023-07-20T06:35:51;19.20;99.90
25320;DHT22;13256;49.012;8.610;2023-07-20T06:38:20;19.40;99.90
25320;DHT22;13256;49.012;8.610;2023-07-20T06:40:54;19.50;99.90
25320;DHT22;13256;49.012;8.610;2023-07-20T06:43:21;19.60;99.90
25320;DHT22;13256;49.012;8.610;2023-07-20T06:45:52;19.60;99.90
25320;DHT22;13256;49.012;8.610;2023-07-20T06:48:25;19.70;99.90
25320;DHT22;13256;49.012;8.610;2023-07-20T06:50:55;19.80;99.90
25320;DHT22;13256;49.012;8.610;2023-07-20T06:53:25;19.80;99.90
25320;DHT22;13256;49.012;8.610;2023-07-20T06:55:55;19.90;99.90
25320;DHT22;13256;49.012;8.610;2023-07-20T06:58:58;20.00;99.90
25320;DHT22;13256;49.012;8.610;2023-07-20T07:01:26;20.00;99.90
25320;DHT22;13256;49.012;8.610;2023-07-20T07:03:54;20.10;99.90
25320;DHT22;13256;49.012;8.610;2023-07-20T07:06:22;20.20;99.90
25320;DHT22;13256;49.012;8.610;2023-07-20T07:08:54;20.40;99.90
25320;DHT22;13256;49.012;8.610;2023-07-20T07:11:23;20.60;99.90
25320;DHT22;13256;49.012;8.610;2023-07-20T07:13:56;20.70;99.90
25320;DHT22;13256;49.012;8.610;2023-07-20T07:16:51;20.70;99.90
25320;DHT22;13256;49.012;8.610;2023-07-20T07:19:20;20.80;99.90
25320;DHT22;13256;49.012;8.610;2023-07-20T07:21:51;20.90;99.90
25320;DHT22;13256;49.012;8.610;2023-07-20T07:27:55;20.90;99.90
25320;DHT22;13256;49.012;8.610;2023-07-20T07:30:26;20.90;99.90
25320;DHT22;13256;49.012;8.610;2023-07-20T07:32:56;20.90;99.90
25320;DHT22;13256;49.012;8.610;2023-07-20T07:35:32;21.00;99.90
25320;DHT22;13256;49.012;8.610;2023-07-20T07:38:05;21.00;99.90
25320;DHT22;13256;49.012;8.610;2023-07-20T07:40:54;21.10;99.90
25320;DHT22;13256;49.012;8.610;2023-07-20T07:43:50;21.00;99.90
25320;DHT22;13256;49.012;8.610;2023-07-20T07:46:21;21.00;99.90
25320;DHT22;13256;49.012;8.610;2023-07-20T07:48:50;21.00;99.90
25320;DHT22;13256;49.012;8.610;2023-07-20T07:51:17;21.00;99.90
25320;DHT22;13256;49.012;8.610;2023-07-20T07:53:52;21.10;99.90
25320;DHT22;13256;49.012;8.610;2023-07-20T07:56:45;21.00;99.90
25320;DHT22;13256;49.012;8.610;2023-07-20T07:59:14;21.10;99.90
25320;DHT22;13256;49.012;8.610;2023-07-20T08:01:46;21.10;99.90
25320;DHT22;13256;49.012;8.610;2023-07-20T08:04:15;21.30;99.90
25320;DHT22;13256;49.012;8.610;2023-07-20T08:06:47;21.40;99.90
25320;DHT22;13256;49.012;8.610;2023-07-20T08:09:18;21.60;99.90
25320;DHT22;13256;49.012;8.610;2023-07-20T08:11:50;21.80;99.90
25320;DHT22;13256;49.012;8.610;2023-07-20T08:14:18;22.00;99.90
25320;DHT22;13256;49.012;8.610;2023-07-20T08:16:48;22.10;99.90
25320;DHT22;13256;49.012;8.610;2023-07-20T08:19:20;21.90;99.90
25320;DHT22;13256;49.012;8.610;2023-07-20T08:22:18;21.80;99.90
25320;DHT22;13256;49.012;8.610;2023-07-20T08:24:48;21.70;99.90
25320;DHT22;13256;49.012;8.610;2023-07-20T08:27:16;21.80;99.90
25320;DHT22;13256;49.012;8.610;2023-07-20T08:29:45;21.80;99.90
25320;DHT22;13256;49.012;8.610;2023-07-20T08:32:13;21.90;99.90
25320;DHT22;13256;49.012;8.610;2023-07-20T08:34:42;22.10;99.90
25320;DHT22;13256;49.012;8.610;2023-07-20T08:37:13;22.20;99.90
25320;DHT22;13256;49.012;8.610;2023-07-20T08:39:41;22.30;99.90
25320;DHT22;13256;49.012;8.610;2023-07-20T08:42:07;22.50;99.90
25320;DHT22;13256;49.012;8.610;2023-07-20T08:44:42;22.80;99.90
25320;DHT22;13256;49.012;8.610;2023-07-20T08:47:14;23.10;99.90
25320;DHT22;13256;49.012;8.610;2023-07-20T08:49:48;23.30;99.90
25320;DHT22;13256;49.012;8.610;2023-07-20T08:52:22;23.50;99.90
25320;DHT22;13256;49.012;8.610;2023-07-20T08:54:52;23.60;99.90
25320;DHT22;13256;49.012;8.610;2023-07-20T08:57:24;23.80;99.90
25320;DHT22;13256;49.012;8.610;2023-07-20T08:59:53;23.90;99.90
25320;DHT22;13256;49.012;8.610;2023-07-20T09:02:27;23.90;99.90
25320;DHT22;13256;49.012;8.610;2023-07-20T09:04:54;23.50;99.70
25320;DHT22;13256;49.012;8.610;2023-07-20T09:07:26;23.50;99.40
25320;DHT22;13256;49.012;8.610;2023-07-20T09:09:57;23.70;98.60
25320;DHT22;13256;49.012;8.610;2023-07-20T09:15:58;24.20;98.60
25320;DHT22;13256;49.012;8.610;2023-07-20T09:18:34;24.40;96.40
25320;DHT22;13256;49.012;8.610;2023-07-20T09:21:09;24.10;94.70
25320;DHT22;13256;49.012;8.610;2023-07-20T09:29:51;24.30;98.40
25320;DHT22;13256;49.012;8.610;2023-07-20T09:32:51;24.80;96.40
25320;DHT22;13256;49.012;8.610;2023-07-20T09:35:22;24.80;95.60
25320;DHT22;13256;49.012;8.610;2023-07-20T09:42:04;24.90;95.70
25320;DHT22;13256;49.012;8.610;2023-07-20T09:45:07;24.80;95.60
25320;DHT22;13256;49.012;8.610;2023-07-20T09:47:36;24.40;95.00
25320;DHT22;13256;49.012;8.610;2023-07-20T09:50:25;24.40;96.60
25320;DHT22;13256;49.012;8.610;2023-07-20T09:53:06;24.80;97.10
25320;DHT22;13256;49.012;8.610;2023-07-20T09:55:48;24.80;96.00
25320;DHT22;13256;49.012;8.610;2023-07-20T09:58:52;24.80;95.60
25320;DHT22;13256;49.012;8.610;2023-07-20T10:01:40;24.60;95.30
25320;DHT22;13256;49.012;8.610;2023-07-20T10:04:14;24.40;94.20
25320;DHT22;13256;49.012;8.610;2023-07-20T10:06:49;24.60;95.20
25320;DHT22;13256;49.012;8.610;2023-07-20T10:09:43;24.90;93.60
25320;DHT22;13256;49.012;8.610;2023-07-20T10:12:15;25.20;92.60
25320;DHT22;13256;49.012;8.610;2023-07-20T10:18:25;25.90;91.20
25320;DHT22;13256;49.012;8.610;2023-07-20T10:21:21;26.40;90.90
25320;DHT22;13256;49.012;8.610;2023-07-20T10:25:31;26.80;90.50
25320;DHT22;13256;49.012;8.610;2023-07-20T10:28:14;26.90;88.40
25320;DHT22;13256;49.012;8.610;2023-07-20T10:45:55;28.00;83.80
25320;DHT22;13256;49.012;8.610;2023-07-20T10:48:23;28.40;81.30
25320;DHT22;13256;49.012;8.610;2023-07-20T10:51:14;28.50;79.40
25320;DHT22;13256;49.012;8.610;2023-07-20T10:57:29;28.30;77.10
25320;DHT22;13256;49.012;8.610;2023-07-20T11:49:16;29.60;67.70
25320;DHT22;13256;49.012;8.610;2023-07-20T11:52:14;29.60;63.80
25320;DHT22;13256;49.012;8.610;2023-07-20T11:55:03;29.30;63.70
25320;DHT22;13256;49.012;8.610;2023-07-20T11:57:31;28.70;63.50
25320;DHT22;13256;49.012;8.610;2023-07-20T12:00:06;27.80;64.60
25320;DHT22;13256;49.012;8.610;2023-07-20T12:02:38;27.30;65.80
25320;DHT22;13256;49.012;8.610;2023-07-20T12:05:12;27.40;68.50
25320;DHT22;13256;49.012;8.610;2023-07-20T12:07:45;27.50;69.50
25320;DHT22;13256;49.012;8.610;2023-07-20T12:11:07;27.80;68.80
25320;DHT22;13256;49.012;8.610;2023-07-20T12:13:44;28.10;67.80
25320;DHT22;13256;49.012;8.610;2023-07-20T12:16:17;28.20;67.00
25320;DHT22;13256;49.012;8.610;2023-07-20T12:22:24;28.80;65.70
25320;DHT22;13256;49.012;8.610;2023-07-20T12:24:52;29.20;65.90
25320;DHT22;13256;49.012;8.610;2023-07-20T12:27:20;29.30;63.40
25320;DHT22;13256;49.012;8.610;2023-07-20T12:29:48;29.30;63.00
25320;DHT22;13256;49.012;8.610;2023-07-20T12:32:17;29.30;64.50
25320;DHT22;13256;49.012;8.610;2023-07-20T12:34:44;29.20;62.00
25320;DHT22;13256;49.012;8.610;2023-07-20T12:37:11;28.60;62.50
25320;DHT22;13256;49.012;8.610;2023-07-20T12:39:39;28.20;63.40
25320;DHT22;13256;49.012;8.610;2023-07-20T12:42:08;28.20;64.70
25320;DHT22;13256;49.012;8.610;2023-07-20T12:44:35;28.20;67.20
25320;DHT22;13256;49.012;8.610;2023-07-20T12:47:02;28.40;68.80
25320;DHT22;13256;49.012;8.610;2023-07-20T12:49:35;28.90;65.70
25320;DHT22;13256;49.012;8.610;2023-07-20T12:55:52;30.10;66.20
25320;DHT22;13256;49.012;8.610;2023-07-20T12:58:22;30.50;59.50
25320;DHT22;13256;49.012;8.610;2023-07-20T13:00:51;30.10;59.40
25320;DHT22;13256;49.012;8.610;2023-07-20T13:03:18;29.90;58.70
25320;DHT22;13256;49.012;8.610;2023-07-20T13:05:52;29.70;60.70
25320;DHT22;13256;49.012;8.610;2023-07-20T13:08:47;29.50;56.90
25320;DHT22;13256;49.012;8.610;2023-07-20T13:11:17;29.30;60.10
25320;DHT22;13256;49.012;8.610;2023-07-20T13:13:47;29.60;60.80
25320;DHT22;13256;49.012;8.610;2023-07-20T13:16:14;30.00;58.60
25320;DHT22;13256;49.012;8.610;2023-07-20T13:18:42;30.20;56.90
25320;DHT22;13256;49.012;8.610;2023-07-20T13:21:15;30.40;58.30
25320;DHT22;13256;49.012;8.610;2023-07-20T13:23:42;30.70;59.20
25320;DHT22;13256;49.012;8.610;2023-07-20T13:26:09;30.70;55.70
25320;DHT22;13256;49.012;8.610;2023-07-20T13:28:36;30.40;55.10
25320;DHT22;13256;49.012;8.610;2023-07-20T13:31:06;30.10;54.70
25320;DHT22;13256;49.012;8.610;2023-07-20T13:33:37;29.80;54.80
25320;DHT22;13256;49.012;8.610;2023-07-20T13:36:13;29.30;55.70
25320;DHT22;13256;49.012;8.610;2023-07-20T13:38:40;29.20;57.80
25320;DHT22;13256;49.012;8.610;2023-07-20T13:41:07;29.20;58.00
25320;DHT22;13256;49.012;8.610;2023-07-20T13:43:39;29.60;57.30
25320;DHT22;13256;49.012;8.610;2023-07-20T13:46:18;29.60;55.80
25320;DHT22;13256;49.012;8.610;2023-07-20T13:49:09;29.90;57.80
25320;DHT22;13256;49.012;8.610;2023-07-20T13:54:07;30.40;52.80
25320;DHT22;13256;49.012;8.610;2023-07-20T13:56:50;30.50;51.90
25320;DHT22;13256;49.012;8.610;2023-07-20T13:59:46;30.50;52.20
25320;DHT22;13256;49.012;8.610;2023-07-20T14:02:26;30.40;52.70
25320;DHT22;13256;49.012;8.610;2023-07-20T14:05:20;30.60;54.20
25320;DHT22;13256;49.012;8.610;2023-07-20T14:08:02;30.40;52.20
25320;DHT22;13256;49.012;8.610;2023-07-20T14:13:54;30.70;53.20
25320;DHT22;13256;49.012;8.610;2023-07-20T14:16:25;31.10;55.30
25320;DHT22;13256;49.012;8.610;2023-07-20T14:18:55;31.40;54.70
25320;DHT22;13256;49.012;8.610;2023-07-20T14:21:26;31.80;54.60
25320;DHT22;13256;49.012;8.610;2023-07-20T14:24:20;32.00;55.30
25320;DHT22;13256;49.012;8.610;2023-07-20T14:26:49;32.40;52.70
25320;DHT22;13256;49.012;8.610;2023-07-20T14:29:18;32.50;52.60
25320;DHT22;13256;49.012;8.610;2023-07-20T14:31:45;32.70;50.40
25320;DHT22;13256;49.012;8.610;2023-07-20T14:34:19;32.80;51.50
25320;DHT22;13256;49.012;8.610;2023-07-20T14:36:48;32.50;48.30
25320;DHT22;13256;49.012;8.610;2023-07-20T14:39:16;32.10;49.20
25320;DHT22;13256;49.012;8.610;2023-07-20T14:41:46;31.70;50.30
25320;DHT22;13256;49.012;8.610;2023-07-20T14:44:15;31.50;48.50
25320;DHT22;13256;49.012;8.610;2023-07-20T14:46:42;31.10;50.20
25320;DHT22;13256;49.012;8.610;2023-07-20T14:49:14;31.10;49.90
25320;DHT22;13256;49.012;8.610;2023-07-20T14:51:40;31.10;51.50
25320;DHT22;13256;49.012;8.610;2023-07-20T14:54:16;30.70;49.90
25320;DHT22;13256;49.012;8.610;2023-07-20T14:56:52;30.80;53.00
25320;DHT22;13256;49.012;8.610;2023-07-20T14:59:20;31.00;50.20
25320;DHT22;13256;49.012;8.610;2023-07-20T15:01:51;31.20;51.20
25320;DHT22;13256;49.012;8.610;2023-07-20T15:04:20;31.20;50.80
25320;DHT22;13256;49.012;8.610;2023-07-20T15:06:47;31.40;51.70
25320;DHT22;13256;49.012;8.610;2023-07-20T15:09:14;31.30;48.80
25320;DHT22;13256;49.012;8.610;2023-07-20T15:11:41;30.80;46.10
25320;DHT22;13256;49.012;8.610;2023-07-20T15:14:08;30.30;48.30
25320;DHT22;13256;49.012;8.610;2023-07-20T15:16:37;30.10;48.80
25320;DHT22;13256;49.012;8.610;2023-07-20T15:19:04;29.90;48.50
25320;DHT22;13256;49.012;8.610;2023-07-20T15:21:31;29.90;51.40
25320;DHT22;13256;49.012;8.610;2023-07-20T15:23:59;30.20;50.40
25320;DHT22;13256;49.012;8.610;2023-07-20T15:26:26;30.40;50.40
25320;DHT22;13256;49.012;8.610;2023-07-20T15:28:55;30.60;52.00
25320;DHT22;13256;49.012;8.610;2023-07-20T15:31:22;30.60;49.90
25320;DHT22;13256;49.012;8.610;2023-07-20T15:34:10;30.80;49.70
25320;DHT22;13256;49.012;8.610;2023-07-20T15:36:42;30.40;48.70
25320;DHT22;13256;49.012;8.610;2023-07-20T15:39:15;30.40;50.40
25320;DHT22;13256;49.012;8.610;2023-07-20T15:41:42;30.10;48.20
25320;DHT22;13256;49.012;8.610;2023-07-20T15:44:09;29.60;49.50
25320;DHT22;13256;49.012;8.610;2023-07-20T15:49:06;29.50;51.40
25320;DHT22;13256;49.012;8.610;2023-07-20T15:51:37;29.70;51.60
25320;DHT22;13256;49.012;8.610;2023-07-20T15:54:09;29.60;49.40
25320;DHT22;13256;49.012;8.610;2023-07-20T15:56:44;29.60;50.40
25320;DHT22;13256;49.012;8.610;2023-07-20T15:59:13;29.70;52.30
25320;DHT22;13256;49.012;8.610;2023-07-20T16:01:40;29.70;51.70
25320;DHT22;13256;49.012;8.610;2023-07-20T16:04:11;29.60;51.90
25320;DHT22;13256;49.012;8.610;2023-07-20T16:06:41;29.60;49.80
25320;DHT22;13256;49.012;8.610;2023-07-20T16:09:19;29.20;48.40
25320;DHT22;13256;49.012;8.610;2023-07-20T16:11:48;29.00;49.30
25320;DHT22;13256;49.012;8.610;2023-07-20T16:14:14;28.50;47.30
25320;DHT22;13256;49.012;8.610;2023-07-20T16:16:45;28.20;47.50
25320;DHT22;13256;49.012;8.610;2023-07-20T16:19:18;27.90;49.70
25320;DHT22;13256;49.012;8.610;2023-07-20T16:21:45;27.70;50.80
25320;DHT22;13256;49.012;8.610;2023-07-20T16:24:15;27.80;51.10
25320;DHT22;13256;49.012;8.610;2023-07-20T16:27:09;27.80;51.30
25320;DHT22;13256;49.012;8.610;2023-07-20T16:29:42;27.80;52.00
25320;DHT22;13256;49.012;8.610;2023-07-20T16:32:10;27.70;51.20
25320;DHT22;13256;49.012;8.610;2023-07-20T16:34:47;27.70;50.70
25320;DHT22;13256;49.012;8.610;2023-07-20T16:37:18;27.70;51.90
25320;DHT22;13256;49.012;8.610;2023-07-20T16:40:20;27.60;51.80
25320;DHT22;13256;49.012;8.610;2023-07-20T16:42:53;27.50;53.20
25320;DHT22;13256;49.012;8.610;2023-07-20T16:45:25;27.40;51.60
25320;DHT22;13256;49.012;8.610;2023-07-20T16:48:08;27.20;51.80
25320;DHT22;13256;49.012;8.610;2023-07-20T16:57:49;26.70;52.40
25320;DHT22;13256;49.012;8.610;2023-07-20T17:00:17;26.80;53.40
25320;DHT22;13256;49.012;8.610;2023-07-20T17:06:10;26.60;54.60
25320;DHT22;13256;49.012;8.610;2023-07-20T17:08:55;26.70;54.70
25320;DHT22;13256;49.012;8.610;2023-07-20T17:11:49;26.70;53.90
25320;DHT22;13256;49.012;8.610;2023-07-20T17:17:50;26.50;54.50
25320;DHT22;13256;49.012;8.610;2023-07-20T17:23:51;26.40;54.40
25320;DHT22;13256;49.012;8.610;2023-07-20T17:26:24;26.30;53.90
25320;DHT22;13256;49.012;8.610;2023-07-20T17:29:22;26.30;54.80
25320;DHT22;13256;49.012;8.610;2023-07-20T17:31:51;26.20;55.70
25320;DHT22;13256;49.012;8.610;2023-07-20T17:34:23;26.20;55.20
25320;DHT22;13256;49.012;8.610;2023-07-20T17:36:50;26.10;56.20
25320;DHT22;13256;49.012;8.610;2023-07-20T17:39:46;26.10;56.70
25320;DHT22;13256;49.012;8.610;2023-07-20T17:42:16;26.10;55.20
25320;DHT22;13256;49.012;8.610;2023-07-20T17:44:47;26.10;55.60
25320;DHT22;13256;49.012;8.610;2023-07-20T17:47:16;26.10;55.90
25320;DHT22;13256;49.012;8.610;2023-07-20T17:49:49;26.00;56.00
25320;DHT22;13256;49.012;8.610;2023-07-20T17:52:19;25.90;56.70
25320;DHT22;13256;49.012;8.610;2023-07-20T17:54:54;25.90;57.10
25320;DHT22;13256;49.012;8.610;2023-07-20T17:57:21;25.80;58.40
25320;DHT22;13256;49.012;8.610;2023-07-20T17:59:49;25.80;58.00
25320;DHT22;13256;49.012;8.610;2023-07-20T18:02:44;25.70;58.20
25320;DHT22;13256;49.012;8.610;2023-07-20T18:05:11;25.70;57.90
25320;DHT22;13256;49.012;8.610;2023-07-20T18:07:46;25.60;57.80
25320;DHT22;13256;49.012;8.610;2023-07-20T18:10:13;25.60;58.70
25320;DHT22;13256;49.012;8.610;2023-07-20T18:12:47;25.60;58.60
25320;DHT22;13256;49.012;8.610;2023-07-20T18:15:15;25.50;59.10
25320;DHT22;13256;49.012;8.610;2023-07-20T18:17:43;25.50;59.20
25320;DHT22;13256;49.012;8.610;2023-07-20T18:20:22;25.50;59.80
25320;DHT22;13256;49.012;8.610;2023-07-20T18:23:02;25.50;60.30
25320;DHT22;13256;49.012;8.610;2023-07-20T18:25:37;25.40;59.40
25320;DHT22;13256;49.012;8.610;2023-07-20T18:28:07;25.30;59.70
25320;DHT22;13256;49.012;8.610;2023-07-20T18:30:34;25.10;59.60
25320;DHT22;13256;49.012;8.610;2023-07-20T18:33:02;25.00;60.50
25320;DHT22;13256;49.012;8.610;2023-07-20T18:35:31;25.00;60.30